Time;durP1;ratioP1;P1;durP2;ratioP2;P2;SDS_P1;SDS_P2;PMS_P1;PMS_P2;Temp;Humidity;BMP_temperature;BMP_pressure;BME280_temperature;BME280_humidity;BME280_pressure;Samples;Min_cycle;Max_cycle;Signal;HPM_P1;HPM_P2
2023/09/02 00:01:26;;;;;;;4.13;2.80;;;14.80;99.90;;;;;;5117419;28;20096;-66
2023/09/02 00:03:52;;;;;;;3.60;2.42;;;14.80;99.90;;;;;;5098921;28;20052;-65
2023/09/02 00:06:17;;;;;;;5.38;2.25;;;14.80;99.90;;;;;;5117480;28;20016;-65
2023/09/02 00:08:43;;;;;;;4.53;2.67;;;14.80;99.90;;;;;;5117025;28;20047;-65
2023/09/02 00:11:09;;;;;;;3.00;2.60;;;14.80;99.90;;;;;;5098802;28;20341;-65
2023/09/02 00:13:35;;;;;;;5.07;2.97;;;14.80;99.90;;;;;;5098964;28;20047;-65
2023/09/02 00:16:01;;;;;;;3.58;2.78;;;14.80;99.90;;;;;;5117051;28;20024;-65
2023/09/02 00:18:27;;;;;;;3.10;2.80;;;14.80;99.90;;;;;;5116793;28;20412;-65
2023/09/02 00:20:53;;;;;;;3.35;2.22;;;14.70;99.90;;;;;;5117123;28;20094;-66
2023/09/02 00:23:18;;;;;;;4.38;2.38;;;14.70;99.90;;;;;;5115700;28;20047;-65
2023/09/02 00:25:44;;;;;;;3.45;3.10;;;14.70;99.90;;;;;;5098752;28;20027;-66
2023/09/02 00:28:09;;;;;;;3.33;3.03;;;14.70;99.90;;;;;;5098378;28;20456;-66
2023/09/02 00:30:35;;;;;;;3.45;2.80;;;14.70;99.90;;;;;;5117119;28;20023;-65
2023/09/02 00:33:00;;;;;;;2.40;2.20;;;14.70;99.90;;;;;;5118261;28;20437;-65
2023/09/02 00:35:26;;;;;;;4.43;3.05;;;14.70;99.90;;;;;;5117611;28;20106;-65
2023/09/02 00:37:52;;;;;;;3.40;2.70;;;14.70;99.90;;;;;;5117863;28;20107;-65
2023/09/02 00:40:20;;;;;;;3.40;2.70;;;14.70;99.90;;;;;;5116771;28;20034;-65
2023/09/02 00:42:47;;;;;;;6.18;2.80;;;14.70;99.90;;;;;;5098393;28;20019;-66
2023/09/02 00:45:15;;;;;;;5.03;2.55;;;14.70;99.90;;;;;;5098397;28;20030;-66
2023/09/02 00:47:41;;;;;;;3.00;2.75;;;14.80;99.90;;;;;;5098439;28;20043;-66
2023/09/02 00:50:07;;;;;;;3.63;2.50;;;14.80;99.90;;;;;;5098979;28;20411;-68
2023/09/02 00:52:34;;;;;;;3.15;2.50;;;14.80;99.90;;;;;;5101375;28;20111;-66
2023/09/02 00:55:01;;;;;;;4.13;2.67;;;14.80;99.90;;;;;;5118568;28;20030;-67
2023/09/02 00:57:27;;;;;;;3.55;2.50;;;14.80;99.90;;;;;;5099242;28;20118;-65
2023/09/02 00:59:52;;;;;;;4.53;2.42;;;14.80;99.90;;;;;;5099478;28;20024;-65
2023/09/02 01:02:19;;;;;;;3.05;2.50;;;14.80;99.90;;;;;;5116786;28;20065;-65
2023/09/02 01:04:45;;;;;;;3.78;2.80;;;14.80;99.90;;;;;;5098033;28;20080;-65
2023/09/02 01:07:11;;;;;;;3.22;2.70;;;14.80;99.90;;;;;;5115873;28;20403;-65
2023/09/02 01:09:36;;;;;;;2.50;2.15;;;14.80;99.90;;;;;;5116462;28;20020;-65
2023/09/02 01:12:02;;;;;;;5.30;2.70;;;14.80;99.90;;;;;;5116226;28;20024;-65
2023/09/02 01:14:28;;;;;;;4.57;2.83;;;14.80;99.90;;;;;;5097439;28;20073;-65
2023/09/02 01:16:54;;;;;;;3.47;2.08;;;14.80;99.90;;;;;;5097541;28;20471;-65
2023/09/02 01:19:20;;;;;;;2.50;2.30;;;14.80;99.90;;;;;;5097807;28;20364;-65
2023/09/02 01:21:55;;;;;;;2.10;2.00;;;14.80;99.90;;;;;;5115828;28;20020;-65
2023/09/02 01:24:54;;;;;;;1.88;1.77;;;14.80;99.90;;;;;;5097329;28;20360;-65
2023/09/02 01:27:35;;;;;;;3.97;2.08;;;14.80;99.90;;;;;;5115360;28;20469;-65
2023/09/02 01:30:27;;;;;;;1.90;1.80;;;14.70;99.90;;;;;;5097337;28;20526;-65
2023/09/02 01:32:55;;;;;;;3.72;2.30;;;14.70;99.90;;;;;;5097335;28;20027;-65
2023/09/02 01:35:27;;;;;;;3.10;2.05;;;14.70;99.90;;;;;;5096911;28;20032;-65
2023/09/02 01:37:56;;;;;;;2.75;2.33;;;14.60;99.90;;;;;;5115621;28;20047;-65
2023/09/02 01:40:26;;;;;;;2.55;2.28;;;14.70;99.90;;;;;;5115302;28;20015;-66
2023/09/02 01:42:55;;;;;;;5.10;2.20;;;14.60;99.90;;;;;;5115456;28;20046;-65
2023/09/02 01:45:22;;;;;;;3.65;2.78;;;14.60;99.90;;;;;;5114925;28;20023;-65
2023/09/02 01:47:50;;;;;;;3.20;2.45;;;14.60;99.90;;;;;;5097205;28;20028;-65
2023/09/02 01:50:18;;;;;;;5.00;2.40;;;14.60;99.90;;;;;;5114780;28;20468;-66
2023/09/02 01:52:45;;;;;;;3.65;2.72;;;14.50;99.90;;;;;;5115430;28;20023;-65
2023/09/02 01:55:11;;;;;;;3.95;2.47;;;14.50;99.90;;;;;;5114725;28;20032;-65
2023/09/02 01:57:38;;;;;;;2.92;2.42;;;14.50;99.90;;;;;;5096750;28;20020;-65
2023/09/02 02:00:05;;;;;;;3.55;2.05;;;14.50;99.90;;;;;;5097590;28;20118;-65
2023/09/02 02:02:31;;;;;;;2.97;2.42;;;14.40;99.90;;;;;;5115278;28;20343;-66
2023/09/02 02:05:00;;;;;;;2.50;2.30;;;14.40;99.90;;;;;;5096726;28;20049;-65
2023/09/02 02:07:30;;;;;;;3.80;2.85;;;14.30;99.90;;;;;;5115190;28;20038;-65
2023/09/02 02:09:59;;;;;;;2.60;2.40;;;14.30;99.90;;;;;;5114764;28;20055;-65
2023/09/02 02:12:26;;;;;;;3.38;2.45;;;14.30;99.90;;;;;;5114880;28;20012;-65
2023/09/02 02:14:51;;;;;;;2.17;2.00;;;14.30;99.90;;;;;;5115094;28;20067;-65
2023/09/02 02:17:17;;;;;;;4.07;2.35;;;14.20;99.90;;;;;;5096595;28;20050;-65
2023/09/02 02:19:44;;;;;;;3.38;2.17;;;14.20;99.90;;;;;;5096399;28;20024;-65
2023/09/02 02:22:10;;;;;;;3.97;2.33;;;14.20;99.90;;;;;;5096461;28;20023;-65
2023/09/02 02:24:35;;;;;;;5.82;2.28;;;14.20;99.90;;;;;;5114415;28;20090;-65
2023/09/02 02:27:02;;;;;;;2.30;2.10;;;14.20;99.90;;;;;;5114607;28;20058;-65
2023/09/02 02:29:28;;;;;;;2.53;2.33;;;14.20;99.90;;;;;;5114548;28;20027;-65
2023/09/02 02:31:53;;;;;;;3.03;2.25;;;14.20;99.90;;;;;;5096119;28;20024;-65
2023/09/02 02:34:19;;;;;;;2.13;2.03;;;14.10;99.90;;;;;;5114385;28;20061;-65
2023/09/02 02:36:45;;;;;;;3.30;2.33;;;14.10;99.90;;;;;;5114435;28;20460;-65
2023/09/02 02:39:10;;;;;;;5.38;2.50;;;14.10;99.90;;;;;;5114427;28;20077;-65
2023/09/02 02:41:36;;;;;;;3.45;2.33;;;14.10;99.90;;;;;;5114375;28;20023;-65
2023/09/02 02:44:03;;;;;;;7.15;2.55;;;14.10;99.90;;;;;;5095696;28;20023;-65
2023/09/02 02:46:28;;;;;;;3.40;3.10;;;14.00;99.90;;;;;;5113198;28;20055;-65
2023/09/02 02:48:54;;;;;;;2.92;2.35;;;14.00;99.90;;;;;;5095924;28;20020;-65
2023/09/02 02:51:19;;;;;;;5.38;2.30;;;14.00;99.90;;;;;;5095851;28;20043;-65
2023/09/02 02:53:46;;;;;;;5.25;2.20;;;14.00;99.90;;;;;;5114229;28;20016;-65
2023/09/02 02:56:12;;;;;;;3.38;2.17;;;13.90;99.90;;;;;;5095867;28;20038;-65
2023/09/02 02:58:37;;;;;;;7.30;3.00;;;13.90;99.90;;;;;;5095839;28;20024;-65
2023/09/02 03:01:08;;;;;;;4.90;2.40;;;13.90;99.90;;;;;;5113964;28;20020;-65
2023/09/02 03:03:35;;;;;;;4.20;2.75;;;13.80;99.90;;;;;;5095949;28;20020;-65
2023/09/02 03:06:03;;;;;;;2.63;2.30;;;13.80;99.90;;;;;;5095890;28;20030;-65
2023/09/02 03:08:29;;;;;;;3.60;2.40;;;13.80;99.90;;;;;;5095773;28;20445;-65
2023/09/02 03:10:59;;;;;;;3.15;2.40;;;13.80;99.90;;;;;;5114323;28;20020;-65
2023/09/02 03:13:27;;;;;;;2.35;2.15;;;13.70;99.90;;;;;;5095845;28;20027;-65
2023/09/02 03:15:56;;;;;;;2.30;2.20;;;13.70;99.90;;;;;;5095925;28;20027;-65
2023/09/02 03:18:22;;;;;;;4.70;2.35;;;13.70;99.90;;;;;;5096009;28;20031;-65
2023/09/02 03:20:48;;;;;;;2.70;2.40;;;13.70;99.90;;;;;;5095893;28;20458;-65
2023/09/02 03:23:14;;;;;;;2.70;2.50;;;13.70;99.90;;;;;;5113992;28;20024;-65
2023/09/02 03:25:40;;;;;;;3.92;2.72;;;13.70;99.90;;;;;;5114161;28;20066;-65
2023/09/02 03:28:06;;;;;;;3.30;2.33;;;13.60;99.90;;;;;;5095760;28;20051;-65
2023/09/02 03:30:32;;;;;;;2.72;2.40;;;13.60;99.90;;;;;;5095827;28;20532;-65
2023/09/02 03:32:58;;;;;;;4.95;2.33;;;13.60;99.90;;;;;;5095942;28;20024;-65
2023/09/02 03:35:24;;;;;;;2.70;2.50;;;13.60;99.90;;;;;;5095629;28;20084;-65
2023/09/02 03:37:51;;;;;;;2.92;2.63;;;13.60;99.90;;;;;;5114044;28;20019;-65
2023/09/02 03:40:17;;;;;;;2.83;2.20;;;13.50;99.90;;;;;;5095650;28;20111;-65
2023/09/02 03:42:42;;;;;;;2.35;2.15;;;13.50;99.90;;;;;;5096354;28;20051;-65
2023/09/02 03:45:11;;;;;;;2.78;2.58;;;13.50;99.90;;;;;;5096188;28;20050;-65
2023/09/02 03:47:37;;;;;;;3.22;2.63;;;13.50;99.90;;;;;;5114534;28;20030;-65
2023/09/02 03:50:04;;;;;;;5.65;2.83;;;13.50;99.90;;;;;;5113926;28;20103;-65
2023/09/02 03:52:29;;;;;;;2.50;2.30;;;13.50;99.90;;;;;;5096101;28;20027;-65
2023/09/02 03:54:56;;;;;;;2.55;2.35;;;13.40;99.90;;;;;;5113342;28;20381;-65
2023/09/02 03:57:22;;;;;;;2.40;2.20;;;13.40;99.90;;;;;;5114449;28;20406;-65
2023/09/02 03:59:48;;;;;;;3.78;2.13;;;13.40;99.90;;;;;;5099582;28;20016;-65
2023/09/02 04:02:16;;;;;;;2.85;2.25;;;13.40;99.90;;;;;;5117568;28;20027;-65
2023/09/02 04:04:41;;;;;;;4.63;2.30;;;13.40;99.90;;;;;;5117330;28;20019;-65
2023/09/02 04:07:07;;;;;;;2.65;2.08;;;13.40;99.90;;;;;;5098948;28;20031;-65
2023/09/02 04:09:35;;;;;;;4.70;2.67;;;13.40;99.90;;;;;;5098990;28;20051;-65
2023/09/02 04:12:02;;;;;;;9.23;3.40;;;13.30;99.90;;;;;;5099501;28;20024;-65
2023/09/02 04:14:27;;;;;;;2.67;2.47;;;13.30;99.90;;;;;;5116847;28;20050;-65
2023/09/02 04:16:54;;;;;;;3.67;2.20;;;13.30;99.90;;;;;;5099119;28;20028;-65
2023/09/02 04:19:20;;;;;;;2.35;2.15;;;13.30;99.90;;;;;;5117241;28;20099;-65
2023/09/02 04:21:51;;;;;;;2.70;2.50;;;13.30;99.90;;;;;;5117216;28;20039;-65
2023/09/02 04:24:16;;;;;;;2.55;2.35;;;13.30;99.90;;;;;;5098817;28;20372;-65
2023/09/02 04:26:42;;;;;;;2.58;2.35;;;13.30;99.90;;;;;;5098664;28;20047;-66
2023/09/02 04:29:08;;;;;;;3.13;2.72;;;13.30;99.90;;;;;;5116736;28;20094;-65
2023/09/02 04:31:33;;;;;;;5.63;3.47;;;13.30;99.90;;;;;;5116858;28;20035;-61
2023/09/02 04:33:59;;;;;;;4.28;2.55;;;13.30;99.90;;;;;;5116905;28;20020;-61
2023/09/02 04:36:24;;;;;;;3.17;2.70;;;13.40;99.90;;;;;;5116343;28;20364;-62
2023/09/02 04:38:53;;;;;;;3.78;2.55;;;13.40;99.90;;;;;;5116727;28;20020;-63
2023/09/02 04:41:18;;;;;;;6.07;2.33;;;13.40;99.90;;;;;;5117543;28;20023;-62
2023/09/02 04:43:44;;;;;;;2.67;2.22;;;13.40;99.90;;;;;;5098870;28;20302;-62
2023/09/02 04:46:10;;;;;;;4.10;2.53;;;13.40;99.90;;;;;;5117495;28;20024;-66
2023/09/02 04:48:36;;;;;;;3.10;2.80;;;13.40;99.90;;;;;;5116479;28;20338;-61
2023/09/02 04:51:05;;;;;;;3.15;2.28;;;13.50;99.90;;;;;;5117027;28;20458;-62
2023/09/02 04:53:31;;;;;;;3.53;2.30;;;13.50;99.90;;;;;;5098247;28;20368;-61
2023/09/02 04:55:59;;;;;;;4.38;2.58;;;13.60;99.90;;;;;;5098112;28;20126;-62
2023/09/02 04:58:25;;;;;;;4.05;2.30;;;13.60;99.90;;;;;;5116354;28;20016;-62
2023/09/02 05:00:52;;;;;;;2.47;2.20;;;13.70;99.90;;;;;;5116054;28;20022;-62
2023/09/02 05:03:18;;;;;;;3.40;1.90;;;13.80;99.90;;;;;;5097901;28;20445;-62
2023/09/02 05:05:43;;;;;;;2.45;2.00;;;13.90;99.90;;;;;;5115852;28;20046;-62
2023/09/02 05:08:09;;;;;;;3.80;2.10;;;13.90;99.90;;;;;;5116101;28;20020;-62
2023/09/02 05:10:35;;;;;;;1.92;1.75;;;14.00;99.90;;;;;;5096996;28;20050;-62
2023/09/02 05:13:00;;;;;;;2.20;2.00;;;14.00;99.90;;;;;;5116103;28;20028;-62
2023/09/02 05:15:26;;;;;;;2.90;2.00;;;14.20;99.90;;;;;;5097503;28;20077;-62
2023/09/02 05:17:52;;;;;;;3.80;2.13;;;14.20;99.90;;;;;;5097662;28;20052;-65
2023/09/02 05:20:18;;;;;;;2.65;2.10;;;14.30;99.90;;;;;;5115754;28;20099;-62
2023/09/02 05:22:44;;;;;;;1.75;1.58;;;14.30;99.90;;;;;;5115798;28;20096;-62
2023/09/02 05:25:10;;;;;;;2.22;1.60;;;14.40;99.90;;;;;;5097341;28;20020;-62
2023/09/02 05:27:38;;;;;;;2.97;1.80;;;14.50;99.90;;;;;;5097306;28;20084;-61
2023/09/02 05:30:05;;;;;;;1.45;1.17;;;14.50;99.90;;;;;;5097800;28;20035;-62
2023/09/02 05:32:31;;;;;;;12.77;3.33;;;14.60;99.90;;;;;;5096926;28;20115;-62
2023/09/02 05:34:56;;;;;;;1.35;1.17;;;14.80;99.90;;;;;;5115236;28;20111;-62
2023/09/02 05:37:22;;;;;;;1.63;1.52;;;14.90;99.90;;;;;;5115441;28;20107;-65
2023/09/02 05:39:47;;;;;;;6.57;1.52;;;15.10;99.90;;;;;;5097148;28;20463;-65
2023/09/02 05:42:13;;;;;;;3.25;1.20;;;15.20;99.90;;;;;;5115352;28;20027;-65
2023/09/02 05:44:41;;;;;;;3.45;1.48;;;15.30;99.90;;;;;;5115306;28;20103;-64
2023/09/02 05:47:07;;;;;;;1.73;1.38;;;15.40;99.90;;;;;;5115455;28;20016;-65
2023/09/02 05:49:37;;;;;;;3.42;1.45;;;15.60;99.90;;;;;;5115119;28;20030;-65
2023/09/02 05:52:05;;;;;;;1.35;1.25;;;15.70;99.90;;;;;;5115218;28;20051;-65
2023/09/02 05:54:30;;;;;;;3.67;1.20;;;15.90;99.90;;;;;;5115267;28;20020;-65
2023/09/02 05:56:56;;;;;;;1.70;1.55;;;16.10;99.90;;;;;;5096980;28;20068;-65
2023/09/02 05:59:21;;;;;;;1.50;1.40;;;16.40;99.90;;;;;;5114994;28;20107;-64
2023/09/02 06:01:47;;;;;;;1.83;1.25;;;16.70;99.90;;;;;;5115051;28;20023;-64
2023/09/02 06:04:13;;;;;;;1.98;1.27;;;17.00;99.90;;;;;;5097346;28;20095;-66
2023/09/02 06:06:39;;;;;;;2.50;1.10;;;17.20;99.90;;;;;;5096645;28;20045;-64
2023/09/02 06:09:04;;;;;;;1.42;1.15;;;17.50;99.90;;;;;;5114596;28;20030;-65
2023/09/02 06:11:31;;;;;;;1.70;1.10;;;17.80;99.90;;;;;;5096613;28;20103;-69
2023/09/02 06:13:56;;;;;;;1.60;1.10;;;18.00;99.90;;;;;;5114397;28;20456;-67
2023/09/02 06:16:22;;;;;;;2.58;1.10;;;18.50;99.90;;;;;;5115091;28;20028;-66
2023/09/02 06:18:47;;;;;;;1.75;1.55;;;18.90;99.90;;;;;;5114877;28;20023;-64
2023/09/02 06:21:14;;;;;;;1.08;0.95;;;19.50;99.90;;;;;;5113549;28;20055;-63
2023/09/02 06:23:43;;;;;;;1.02;0.98;;;19.80;99.90;;;;;;5096528;28;20019;-64
2023/09/02 06:26:09;;;;;;;3.63;0.80;;;20.20;99.90;;;;;;5114675;28;20022;-63
2023/09/02 06:28:35;;;;;;;0.73;0.70;;;20.70;99.90;;;;;;5096103;28;20059;-63
2023/09/02 06:31:08;;;;;;;3.13;0.98;;;21.00;99.90;;;;;;5115047;28;20020;-63
2023/09/02 06:33:34;;;;;;;1.83;1.02;;;21.30;99.90;;;;;;5115230;28;20059;-64
2023/09/02 06:36:07;;;;;;;1.48;0.95;;;21.60;99.90;;;;;;5097332;28;20033;-64
2023/09/02 06:38:33;;;;;;;1.08;0.80;;;21.80;99.90;;;;;;5120722;28;20020;-68
2023/09/02 06:40:59;;;;;;;1.35;0.90;;;22.00;99.90;;;;;;5119272;28;20016;-66
2023/09/02 06:43:24;;;;;;;2.28;0.93;;;22.20;99.90;;;;;;5100167;28;20069;-65
2023/09/02 06:45:50;;;;;;;0.75;0.70;;;22.50;99.90;;;;;;5098805;28;20020;-64
2023/09/02 06:48:16;;;;;;;0.98;0.80;;;22.80;99.90;;;;;;5114565;28;20073;-63
2023/09/02 06:50:45;;;;;;;2.97;0.95;;;23.20;99.90;;;;;;5093281;28;20130;-63
2023/09/02 06:53:10;;;;;;;2.08;0.93;;;23.70;99.90;;;;;;5095453;28;20030;-64
2023/09/02 06:55:36;;;;;;;5.05;1.10;;;24.00;99.90;;;;;;5093742;28;20032;-64
2023/09/02 06:58:02;;;;;;;2.63;1.10;;;24.20;99.90;;;;;;5093434;28;20446;-63
2023/09/02 07:00:28;;;;;;;5.20;1.92;;;24.60;99.90;;;;;;5093434;28;20024;-64
2023/09/02 07:02:53;;;;;;;2.67;0.98;;;25.10;99.90;;;;;;5094404;28;20032;-64
2023/09/02 07:05:19;;;;;;;1.88;1.02;;;25.50;99.90;;;;;;5093924;28;20051;-64
2023/09/02 07:07:44;;;;;;;1.63;0.80;;;25.90;99.40;;;;;;5092526;28;20020;-64
2023/09/02 07:10:10;;;;;;;4.22;0.80;;;26.00;99.40;;;;;;5092705;28;20032;-64
2023/09/02 07:12:36;;;;;;;1.23;0.70;;;26.30;99.00;;;;;;5071266;28;20052;-63
2023/09/02 07:15:02;;;;;;;3.85;1.45;;;26.60;98.00;;;;;;5054645;28;20032;-64
2023/09/02 07:17:28;;;;;;;0.70;0.70;;;26.80;96.80;;;;;;5054531;28;20035;-64
2023/09/02 07:19:54;;;;;;;0.98;0.90;;;26.90;95.90;;;;;;5055166;28;20064;-64
2023/09/02 07:22:20;;;;;;;1.95;0.88;;;26.80;97.10;;;;;;5072712;28;20124;-64
2023/09/02 07:24:46;;;;;;;1.58;0.80;;;27.00;96.00;;;;;;5072037;28;20107;-64
2023/09/02 07:27:11;;;;;;;1.85;0.77;;;27.20;95.20;;;;;;5071307;28;20548;-64
2023/09/02 07:29:37;;;;;;;0.80;0.80;;;27.40;93.90;;;;;;5071093;28;20112;-64
2023/09/02 07:32:03;;;;;;;1.00;0.95;;;27.60;93.00;;;;;;5054974;28;20025;-64
2023/09/02 07:34:28;;;;;;;0.80;0.80;;;27.70;91.80;;;;;;5074675;28;20378;-64
2023/09/02 07:36:54;;;;;;;0.75;0.75;;;27.90;92.00;;;;;;5057833;28;20056;-64
2023/09/02 07:39:19;;;;;;;1.00;0.85;;;28.00;90.50;;;;;;5074800;28;20032;-64
2023/09/02 07:41:46;;;;;;;1.33;1.10;;;28.30;90.50;;;;;;5074871;28;20021;-67
2023/09/02 07:44:12;;;;;;;0.90;0.90;;;28.60;89.90;;;;;;5086271;28;20032;-64
2023/09/02 07:46:38;;;;;;;1.38;1.00;;;29.00;87.30;;;;;;5096945;28;20502;-64
2023/09/02 07:49:03;;;;;;;1.60;0.80;;;29.30;85.10;;;;;;5096593;28;20093;-64
2023/09/02 07:51:29;;;;;;;0.90;0.90;;;29.30;83.30;;;;;;5095294;28;20059;-64
2023/09/02 07:53:54;;;;;;;3.60;0.90;;;29.00;82.60;;;;;;5095561;28;20157;-64
2023/09/02 07:56:22;;;;;;;0.77;0.77;;;29.00;83.50;;;;;;5096660;28;20028;-64
2023/09/02 07:58:49;;;;;;;1.30;0.95;;;29.00;83.50;;;;;;5096227;28;20024;-64
2023/09/02 08:01:15;;;;;;;1.02;1.00;;;29.40;83.10;;;;;;5097099;28;20024;-65
2023/09/02 08:03:40;;;;;;;2.08;0.80;;;29.80;80.40;;;;;;5095718;28;20024;-64
2023/09/02 08:06:07;;;;;;;0.95;0.90;;;29.90;79.20;;;;;;5096639;28;20032;-65
2023/09/02 08:08:33;;;;;;;0.80;0.80;;;30.10;77.80;;;;;;5095540;28;20112;-64
2023/09/02 08:11:05;;;;;;;0.77;0.70;;;30.10;75.90;;;;;;5096576;28;20052;-64
2023/09/02 08:13:32;;;;;;;1.48;1.00;;;30.00;75.40;;;;;;5095195;28;20047;-64
2023/09/02 08:15:58;;;;;;;1.63;0.90;;;29.90;75.90;;;;;;5095224;28;20028;-64
2023/09/02 08:18:24;;;;;;;0.80;0.63;;;30.40;74.80;;;;;;5096591;28;20024;-64
2023/09/02 08:20:50;;;;;;;1.42;0.70;;;30.50;73.60;;;;;;5095136;28;20016;-64
2023/09/02 08:23:15;;;;;;;1.48;0.95;;;30.90;72.80;;;;;;5096063;28;20513;-65
2023/09/02 08:25:41;;;;;;;0.80;0.80;;;31.10;71.40;;;;;;5096374;28;20369;-64
2023/09/02 08:28:07;;;;;;;2.55;1.00;;;31.60;68.00;;;;;;5096322;28;20024;-66
2023/09/02 08:30:32;;;;;;;1.67;1.20;;;32.20;65.00;;;;;;5094721;28;20024;-64
2023/09/02 08:32:58;;;;;;;1.83;0.90;;;32.30;64.80;;;;;;5094755;28;20024;-64
2023/09/02 08:35:24;;;;;;;1.88;1.00;;;32.30;63.60;;;;;;5095176;28;20052;-64
2023/09/02 08:37:51;;;;;;;1.52;1.17;;;32.30;62.80;;;;;;5095845;28;20063;-64
2023/09/02 08:40:17;;;;;;;0.70;0.63;;;32.60;61.00;;;;;;5094734;28;20028;-64
2023/09/02 08:42:43;;;;;;;1.75;0.95;;;32.60;61.00;;;;;;5095948;28;20020;-66
2023/09/02 08:45:09;;;;;;;0.98;0.82;;;33.00;59.10;;;;;;5093640;28;20024;-65
2023/09/02 08:47:37;;;;;;;2.25;0.98;;;33.30;58.60;;;;;;5094658;28;20081;-65
2023/09/02 08:50:03;;;;;;;1.58;0.75;;;33.20;57.80;;;;;;5095091;28;20420;-66
2023/09/02 08:52:29;;;;;;;0.80;0.80;;;32.70;58.30;;;;;;5115946;28;20024;-64
2023/09/02 08:54:55;;;;;;;1.10;0.70;;;32.90;56.50;;;;;;5115890;28;20032;-64
2023/09/02 08:57:20;;;;;;;0.93;0.50;;;33.50;55.70;;;;;;5097598;28;20019;-66
2023/09/02 08:59:47;;;;;;;2.10;1.00;;;33.40;56.40;;;;;;5116243;28;20024;-65
2023/09/02 09:02:13;;;;;;;0.77;0.75;;;32.90;56.40;;;;;;5097254;28;20027;-65
2023/09/02 09:04:39;;;;;;;1.20;0.90;;;33.50;55.90;;;;;;5115325;28;20127;-66
2023/09/02 09:07:06;;;;;;;0.70;0.70;;;33.80;54.60;;;;;;5097423;28;20034;-65
2023/09/02 09:09:39;;;;;;;0.80;0.80;;;34.50;52.90;;;;;;5115606;28;20095;-65
2023/09/02 09:12:07;;;;;;;0.77;0.60;;;34.40;52.90;;;;;;5097325;28;20449;-65
2023/09/02 09:14:36;;;;;;;1.40;0.70;;;34.50;53.20;;;;;;5115242;28;20475;-65
2023/09/02 09:17:03;;;;;;;0.90;0.70;;;34.70;52.90;;;;;;5115858;28;20072;-66
2023/09/02 09:19:29;;;;;;;2.30;0.80;;;34.30;53.30;;;;;;5115113;28;20423;-65
2023/09/02 09:21:55;;;;;;;1.08;0.70;;;34.50;53.50;;;;;;5114862;28;20027;-65
2023/09/02 09:24:21;;;;;;;0.75;0.70;;;34.40;52.10;;;;;;5115539;28;20490;-66
2023/09/02 09:26:48;;;;;;;2.22;0.98;;;34.80;52.40;;;;;;5115527;28;20031;-66
2023/09/02 09:29:16;;;;;;;0.88;0.88;;;35.20;52.00;;;;;;5115025;28;20028;-65
2023/09/02 09:31:42;;;;;;;0.63;0.63;;;35.30;51.10;;;;;;5114879;28;20457;-66
2023/09/02 09:34:09;;;;;;;1.75;0.80;;;34.70;51.80;;;;;;5115418;28;20023;-66
2023/09/02 09:36:34;;;;;;;1.20;1.10;;;34.70;52.40;;;;;;5097011;28;20034;-66
2023/09/02 09:39:05;;;;;;;1.83;0.70;;;34.10;52.00;;;;;;5115201;28;20373;-67
2023/09/02 09:41:31;;;;;;;0.77;0.70;;;33.80;52.40;;;;;;5114724;28;20015;-66
2023/09/02 09:44:17;;;;;;;0.80;0.80;;;33.80;52.10;;;;;;5096252;28;20034;-67
2023/09/02 09:46:43;;;;;;;0.75;0.70;;;34.30;52.20;;;;;;5115175;28;20062;-67
2023/09/02 09:49:20;;;;;;;1.80;1.10;;;34.30;51.50;;;;;;5115120;28;20084;-67
2023/09/02 09:51:46;;;;;;;0.65;0.65;;;34.70;52.00;;;;;;5114896;28;20046;-67
2023/09/02 09:54:12;;;;;;;0.88;0.85;;;34.50;51.00;;;;;;5115188;28;20028;-67
2023/09/02 09:56:44;;;;;;;1.15;0.80;;;35.20;50.30;;;;;;5096706;28;20024;-67
2023/09/02 09:59:10;;;;;;;0.82;0.82;;;35.20;50.00;;;;;;5096889;28;20016;-67
2023/09/02 10:01:36;;;;;;;1.15;0.80;;;35.10;50.10;;;;;;5096911;28;20015;-67
2023/09/02 10:04:09;;;;;;;0.82;0.80;;;35.30;49.90;;;;;;5096437;28;20333;-67
2023/09/02 10:06:38;;;;;;;0.90;0.90;;;35.70;48.70;;;;;;5114618;28;20054;-67
2023/09/02 10:09:04;;;;;;;0.82;0.70;;;35.80;48.60;;;;;;5114663;28;20423;-67
2023/09/02 10:11:30;;;;;;;1.10;0.77;;;35.60;48.20;;;;;;5096170;28;20019;-67
2023/09/02 10:13:57;;;;;;;2.08;0.80;;;35.80;48.60;;;;;;5114509;28;20027;-67
2023/09/02 10:16:24;;;;;;;0.95;0.77;;;35.50;49.20;;;;;;5114539;28;20020;-67
2023/09/02 10:18:50;;;;;;;2.28;1.25;;;35.90;49.60;;;;;;5096310;28;20027;-67
2023/09/02 10:21:19;;;;;;;1.75;0.70;;;36.20;47.90;;;;;;5096282;28;20118;-67
2023/09/02 10:23:49;;;;;;;1.80;1.10;;;36.70;47.10;;;;;;5096053;28;20034;-67
2023/09/02 10:26:23;;;;;;;0.70;0.70;;;36.70;47.30;;;;;;5114383;28;20114;-67
2023/09/02 10:28:50;;;;;;;1.20;1.13;;;36.40;47.10;;;;;;5096651;28;20034;-67
2023/09/02 10:31:32;;;;;;;0.80;0.80;;;36.00;47.50;;;;;;5096140;28;20333;-67
2023/09/02 10:34:03;;;;;;;1.38;0.90;;;36.00;47.20;;;;;;5114549;28;20020;-66
2023/09/02 10:36:33;;;;;;;0.90;0.90;;;35.70;47.20;;;;;;5114795;28;20032;-67
2023/09/02 10:39:02;;;;;;;0.73;0.73;;;35.50;47.10;;;;;;5095982;28;20023;-67
2023/09/02 10:41:30;;;;;;;1.88;0.85;;;35.80;47.00;;;;;;5095865;28;20023;-67
2023/09/02 10:43:56;;;;;;;1.80;1.05;;;35.60;46.80;;;;;;5114268;28;20035;-65
2023/09/02 10:46:23;;;;;;;1.98;1.25;;;35.70;46.80;;;;;;5114291;28;20024;-67
2023/09/02 10:48:49;;;;;;;1.03;0.70;;;36.00;46.70;;;;;;5114073;28;20051;-67
2023/09/02 10:51:16;;;;;;;4.07;0.77;;;36.60;46.30;;;;;;5092135;28;20087;-67
2023/09/02 10:53:50;;;;;;;0.75;0.75;;;36.80;45.50;;;;;;5094412;28;20020;-67
2023/09/02 10:56:37;;;;;;;1.40;0.80;;;36.50;45.70;;;;;;5075997;28;20116;-67
2023/09/02 10:59:05;;;;;;;2.13;0.73;;;36.20;45.80;;;;;;5093408;28;20094;-67
2023/09/02 11:01:49;;;;;;;0.80;0.80;;;36.30;46.00;;;;;;5094049;28;20069;-68
2023/09/02 11:04:40;;;;;;;0.60;0.60;;;36.40;45.50;;;;;;5092338;28;20039;-67
2023/09/02 11:07:24;;;;;;;1.85;0.90;;;36.40;45.50;;;;;;5094891;28;20104;-67
2023/09/02 11:09:57;;;;;;;0.93;0.93;;;37.00;45.30;;;;;;5098078;28;20020;-67
2023/09/02 11:12:24;;;;;;;0.70;0.70;;;37.40;44.60;;;;;;5098061;28;20043;-67
2023/09/02 11:15:08;;;;;;;1.17;1.00;;;36.30;43.50;;;;;;5100033;28;20030;-67
2023/09/02 11:17:43;;;;;;;0.90;0.65;;;35.60;45.00;;;;;;5101803;28;20020;-67
2023/09/02 11:20:11;;;;;;;1.10;0.80;;;35.40;46.20;;;;;;5101604;28;20042;-67
2023/09/02 11:22:55;;;;;;;0.60;0.60;;;35.80;45.30;;;;;;5101020;28;20465;-67
2023/09/02 11:25:29;;;;;;;0.60;0.60;;;36.70;45.60;;;;;;5099560;28;20023;-67
2023/09/02 11:28:04;;;;;;;2.85;0.90;;;37.60;43.70;;;;;;5097749;28;20150;-67
2023/09/02 11:30:32;;;;;;;1.48;0.70;;;37.40;43.20;;;;;;5097767;28;20020;-67
2023/09/02 11:32:58;;;;;;;0.82;0.80;;;36.20;42.80;;;;;;5097594;28;20023;-66
2023/09/02 11:35:27;;;;;;;1.00;0.82;;;36.10;42.90;;;;;;5097835;28;20039;-67
2023/09/02 11:37:53;;;;;;;1.48;0.90;;;35.70;43.00;;;;;;5097516;28;20016;-66
2023/09/02 11:40:20;;;;;;;0.75;0.75;;;35.30;43.70;;;;;;5097320;28;20372;-66
2023/09/02 11:42:49;;;;;;;1.13;0.80;;;34.90;43.20;;;;;;5097441;28;20028;-66
2023/09/02 11:45:15;;;;;;;2.03;0.80;;;34.40;45.00;;;;;;5095688;28;20023;-66
2023/09/02 11:47:41;;;;;;;1.58;0.98;;;33.80;45.20;;;;;;5096145;28;20028;-66
2023/09/02 11:50:15;;;;;;;1.48;0.70;;;34.20;45.50;;;;;;5097184;28;20407;-67
2023/09/02 11:52:41;;;;;;;1.08;0.65;;;35.00;44.50;;;;;;5117445;28;20024;-66
2023/09/02 11:55:11;;;;;;;3.50;0.90;;;34.80;44.80;;;;;;5098836;28;20035;-66
2023/09/02 11:57:37;;;;;;;0.80;0.80;;;34.00;45.90;;;;;;5116813;28;20084;-66
2023/09/02 12:00:03;;;;;;;1.70;0.95;;;33.50;47.60;;;;;;5117124;28;20098;-66
2023/09/02 12:02:29;;;;;;;0.85;0.85;;;32.80;47.50;;;;;;5116915;28;20016;-65
2023/09/02 12:04:55;;;;;;;1.65;0.82;;;32.20;49.70;;;;;;5116772;28;20500;-66
2023/09/02 12:07:21;;;;;;;1.17;1.10;;;31.40;52.40;;;;;;5098660;28;20066;-64
2023/09/02 12:09:47;;;;;;;1.10;1.00;;;30.60;53.80;;;;;;5116954;28;20043;-64
2023/09/02 12:12:15;;;;;;;1.45;0.90;;;30.10;55.10;;;;;;5116977;28;20445;-65
2023/09/02 12:14:41;;;;;;;2.63;1.42;;;30.10;55.90;;;;;;5116796;28;20026;-65
2023/09/02 12:17:07;;;;;;;0.90;0.90;;;30.20;57.90;;;;;;5098448;28;20031;-65
2023/09/02 12:19:34;;;;;;;1.85;0.90;;;30.30;55.20;;;;;;5098304;28;20020;-65
2023/09/02 12:22:00;;;;;;;1.92;1.73;;;30.60;55.10;;;;;;5116941;28;20026;-65
2023/09/02 12:24:27;;;;;;;0.90;0.90;;;30.90;53.50;;;;;;5098567;28;20439;-65
2023/09/02 12:26:52;;;;;;;1.85;1.15;;;31.80;53.00;;;;;;5116293;28;20070;-65
2023/09/02 12:29:20;;;;;;;1.85;1.13;;;32.60;52.80;;;;;;5116945;28;20051;-65
2023/09/02 12:31:56;;;;;;;1.60;1.35;;;33.00;51.10;;;;;;5116552;28;20019;-65
2023/09/02 12:34:22;;;;;;;1.58;1.15;;;33.50;50.40;;;;;;5116398;28;20046;-65
2023/09/02 12:36:48;;;;;;;1.67;1.00;;;33.60;48.80;;;;;;5116589;28;20038;-65
2023/09/02 12:39:24;;;;;;;2.65;1.08;;;33.80;49.30;;;;;;5098468;28;20369;-65
2023/09/02 12:41:50;;;;;;;1.45;0.98;;;34.40;48.30;;;;;;5116588;28;20020;-66
2023/09/02 12:44:20;;;;;;;0.65;0.65;;;35.60;47.80;;;;;;5116323;28;20034;-66
2023/09/02 12:46:47;;;;;;;1.05;0.88;;;35.80;45.40;;;;;;5098108;28;20047;-66
2023/09/02 12:49:16;;;;;;;1.85;0.63;;;35.00;46.00;;;;;;5116513;28;20364;-66